createdAt,value
2023-01-04T00:00:42.013Z,8.28
2023-01-04T00:02:45.543Z,8.33
2023-01-04T00:04:48.993Z,8.30
2023-01-04T00:06:52.300Z,8.37
2023-01-04T00:08:55.956Z,8.41
2023-01-04T00:11:02.303Z,8.41
2023-01-04T00:13:05.669Z,8.41
2023-01-04T00:15:10.124Z,8.40
2023-01-04T00:17:14.745Z,8.40
2023-01-04T00:19:18.172Z,8.42
2023-01-04T00:21:24.465Z,8.47
2023-01-04T00:23:29.284Z,8.52
2023-01-04T00:25:32.581Z,8.55
2023-01-04T00:27:35.876Z,8.61
2023-01-04T00:29:39.203Z,8.63
2023-01-04T00:31:44.529Z,8.62
2023-01-04T00:33:49.392Z,8.64
2023-01-04T00:35:52.815Z,8.64
2023-01-04T00:37:56.283Z,8.69
2023-01-04T00:39:59.581Z,8.68
2023-01-04T00:42:06.150Z,8.72
2023-01-04T00:44:10.097Z,8.75
2023-01-04T00:46:13.525Z,8.74
2023-01-04T00:48:17.001Z,8.78
2023-01-04T00:50:21.636Z,8.84
2023-01-04T00:52:24.934Z,8.82
2023-01-04T00:54:29.039Z,8.81
2023-01-04T00:56:33.052Z,8.83
2023-01-04T00:58:36.319Z,8.84
2023-01-04T01:00:40.093Z,8.89
2023-01-04T01:02:43.560Z,8.84
2023-01-04T01:04:46.934Z,8.84
2023-01-04T01:06:52.588Z,8.59
2023-01-04T01:08:56.020Z,8.83
2023-01-04T01:11:04.922Z,8.87
2023-01-04T01:13:08.339Z,8.83
2023-01-04T01:15:12.426Z,8.74
2023-01-04T01:17:15.810Z,8.73
2023-01-04T01:19:31.538Z,8.74
2023-01-04T01:21:34.891Z,8.72
2023-01-04T01:23:39.823Z,8.74
2023-01-04T01:25:43.650Z,8.69
2023-01-04T01:27:47.016Z,8.65
2023-01-04T01:29:50.305Z,8.62
2023-01-04T01:31:54.307Z,8.63
2023-01-04T01:33:58.396Z,8.59
2023-01-04T01:36:02.172Z,8.58
2023-01-04T01:38:05.799Z,8.58
2023-01-04T01:40:12.382Z,8.55
2023-01-04T01:42:23.282Z,8.52
2023-01-04T01:45:02.653Z,8.52
2023-01-04T01:47:06.364Z,8.32
2023-01-04T01:49:14.345Z,8.45
2023-01-04T01:51:18.152Z,8.44
2023-01-04T01:53:22.152Z,8.30
2023-01-04T01:55:29.140Z,8.40
2023-01-04T01:57:36.908Z,8.39
2023-01-04T01:59:42.856Z,8.35
2023-01-04T02:01:46.478Z,8.36
2023-01-04T02:03:50.600Z,8.34
2023-01-04T02:05:56.148Z,8.34
2023-01-04T02:08:01.154Z,8.28
2023-01-04T02:10:05.452Z,8.36
2023-01-04T02:12:13.520Z,8.30
2023-01-04T02:14:30.552Z,8.31
2023-01-04T02:16:51.567Z,8.27
2023-01-04T02:19:03.031Z,8.26
2023-01-04T02:21:13.496Z,8.25
2023-01-04T02:23:55.063Z,8.23
2023-01-04T02:26:25.231Z,8.24
2023-01-04T02:28:50.388Z,8.24
2023-01-04T02:31:22.599Z,8.19
2023-01-04T02:33:40.015Z,8.17
2023-01-04T02:35:52.661Z,8.19
2023-01-04T02:38:04.423Z,8.18
2023-01-04T02:40:17.149Z,8.16
2023-01-04T02:42:50.042Z,8.17
2023-01-04T02:44:58.394Z,8.16
2023-01-04T02:47:07.037Z,8.17
2023-01-04T02:49:28.297Z,8.20
2023-01-04T02:51:33.388Z,8.22
2023-01-04T02:53:40.041Z,8.16
2023-01-04T02:55:50.243Z,8.25
2023-01-04T02:58:02.873Z,8.28
2023-01-04T03:00:25.391Z,8.33
2023-01-04T03:03:09.088Z,8.31
2023-01-04T03:05:52.249Z,8.37
2023-01-04T03:08:03.929Z,8.47
2023-01-04T03:10:13.739Z,8.52
2023-01-04T03:12:33.318Z,8.52
2023-01-04T03:14:42.337Z,8.57
2023-01-04T03:16:46.891Z,8.49
2023-01-04T03:18:55.754Z,8.63
2023-01-04T03:21:01.328Z,8.72
2023-01-04T03:23:26.252Z,8.81
2023-01-04T03:25:51.791Z,8.87
2023-01-04T03:28:14.120Z,8.89
2023-01-04T03:30:38.487Z,8.96
2023-01-04T03:33:06.050Z,9.04
2023-01-04T03:35:28.093Z,9.10
2023-01-04T03:37:36.597Z,9.13
2023-01-04T03:40:12.435Z,9.13
2023-01-04T03:42:40.484Z,9.16
2023-01-04T03:45:10.399Z,9.22
2023-01-04T03:47:37.363Z,9.23
2023-01-04T03:49:46.178Z,9.22
2023-01-04T03:51:55.171Z,9.22
2023-01-04T03:54:04.838Z,9.25
2023-01-04T03:56:11.698Z,9.29
2023-01-04T03:58:15.857Z,9.29
2023-01-04T04:00:20.882Z,9.31
2023-01-04T04:02:31.302Z,9.34
2023-01-04T04:04:52.600Z,9.34
2023-01-04T04:07:14.888Z,9.36
2023-01-04T04:09:18.227Z,9.39
2023-01-04T04:11:33.641Z,9.40
2023-01-04T04:13:36.966Z,9.36
2023-01-04T04:15:40.905Z,9.36
2023-01-04T04:17:45.215Z,9.39
2023-01-04T04:19:48.587Z,9.35
2023-01-04T04:21:51.952Z,9.34
2023-01-04T04:23:57.206Z,9.34
2023-01-04T04:26:00.564Z,9.32
2023-01-04T04:28:03.935Z,9.29
2023-01-04T04:30:08.429Z,9.32
2023-01-04T04:32:11.843Z,9.33
2023-01-04T04:34:15.431Z,9.33
2023-01-04T04:36:19.918Z,8.99
2023-01-04T04:38:23.441Z,9.36
2023-01-04T04:40:45.624Z,9.37
2023-01-04T04:42:48.945Z,9.37
2023-01-04T04:44:52.225Z,9.35
2023-01-04T04:46:55.572Z,9.39
2023-01-04T04:48:59.333Z,9.42
2023-01-04T04:51:02.810Z,9.46
2023-01-04T04:53:06.177Z,9.43
2023-01-04T04:55:10.072Z,9.46
2023-01-04T04:57:14.724Z,9.47
2023-01-04T04:59:18.886Z,9.43
2023-01-04T05:01:22.312Z,9.48
2023-01-04T05:03:26.065Z,9.48
2023-01-04T05:05:30.135Z,9.38
2023-01-04T05:07:33.539Z,9.46
2023-01-04T05:09:36.984Z,9.49
2023-01-04T05:11:57.878Z,9.55
2023-01-04T05:14:02.535Z,9.50
2023-01-04T05:16:08.577Z,9.52
2023-01-04T05:18:14.180Z,9.53
2023-01-04T05:20:17.652Z,9.52
2023-01-04T05:22:21.009Z,9.55
2023-01-04T05:24:24.279Z,9.53
2023-01-04T05:26:27.641Z,9.52
2023-01-04T05:28:31.075Z,9.59
2023-01-04T05:30:50.502Z,9.60
2023-01-04T05:32:53.830Z,9.57
2023-01-04T05:34:57.373Z,9.55
2023-01-04T05:37:00.724Z,9.58
2023-01-04T05:39:04.087Z,9.60
2023-01-04T05:41:28.211Z,9.63
2023-01-04T05:43:31.614Z,9.60
2023-01-04T05:45:36.880Z,9.62
2023-01-04T05:47:41.041Z,9.66
2023-01-04T05:49:44.835Z,9.75
2023-01-04T05:51:48.267Z,9.71
2023-01-04T05:53:51.564Z,9.68
2023-01-04T05:55:54.870Z,9.72
2023-01-04T05:57:58.338Z,9.71
2023-01-04T06:00:01.716Z,9.72
2023-01-04T06:02:07.625Z,9.77
2023-01-04T06:04:11.185Z,9.78
2023-01-04T06:06:14.572Z,9.81
2023-01-04T06:08:17.953Z,9.80
2023-01-04T06:10:21.983Z,9.74
2023-01-04T06:12:25.764Z,9.63
2023-01-04T06:14:29.182Z,9.86
2023-01-04T06:16:32.612Z,9.86
2023-01-04T06:18:37.366Z,9.85
2023-01-04T06:20:40.834Z,9.88
2023-01-04T06:22:44.555Z,9.92
2023-01-04T06:24:48.049Z,9.95
2023-01-04T06:26:51.756Z,9.97
2023-01-04T06:28:55.271Z,9.95
2023-01-04T06:30:58.858Z,10.00
2023-01-04T06:33:02.212Z,9.99
2023-01-04T06:35:07.426Z,9.99
2023-01-04T06:37:10.841Z,10.00
2023-01-04T06:39:14.138Z,10.01
2023-01-04T06:41:18.114Z,10.05
2023-01-04T06:43:21.536Z,10.04
2023-01-04T06:45:25.191Z,10.07
2023-01-04T06:47:28.580Z,10.07
2023-01-04T06:49:32.017Z,10.13
2023-01-04T06:51:36.687Z,10.15
2023-01-04T06:53:40.462Z,10.22
2023-01-04T06:55:44.706Z,10.21
2023-01-04T06:57:48.249Z,10.23
2023-01-04T06:59:51.694Z,10.23
2023-01-04T07:01:55.107Z,10.31
2023-01-04T07:03:58.513Z,10.33
2023-01-04T07:06:06.019Z,10.26
2023-01-04T07:08:11.290Z,10.33
2023-01-04T07:10:14.636Z,9.99
2023-01-04T07:12:18.216Z,10.35
2023-01-04T07:14:21.586Z,10.31
2023-01-04T07:16:24.992Z,10.38
2023-01-04T07:18:28.446Z,10.40
2023-01-04T07:20:31.841Z,10.41
2023-01-04T07:22:35.164Z,10.44
2023-01-04T07:24:39.948Z,10.46
2023-01-04T07:26:43.276Z,10.44
2023-01-04T07:29:04.363Z,10.47
2023-01-04T07:31:08.999Z,10.47
2023-01-04T07:33:12.369Z,10.46
2023-01-04T07:35:15.888Z,10.46
2023-01-04T07:37:19.307Z,10.49
2023-01-04T07:39:23.554Z,10.50
2023-01-04T07:41:28.247Z,10.50
2023-01-04T07:43:31.786Z,10.51
2023-01-04T07:45:36.932Z,10.53
2023-01-04T07:47:40.507Z,10.52
2023-01-04T07:49:43.847Z,10.51
2023-01-04T07:51:48.313Z,10.50
2023-01-04T07:53:51.819Z,10.54
2023-01-04T07:55:59.003Z,10.54
2023-01-04T07:58:03.818Z,10.49
2023-01-04T08:00:08.460Z,10.56
2023-01-04T08:02:15.348Z,10.59
2023-01-04T08:04:22.982Z,10.60
2023-01-04T08:06:26.549Z,10.59
2023-01-04T08:08:29.929Z,10.59
2023-01-04T08:10:33.254Z,10.60
2023-01-04T08:12:36.597Z,10.62
2023-01-04T08:14:41.294Z,10.61
2023-01-04T08:16:44.865Z,10.62
2023-01-04T08:18:48.287Z,10.65
2023-01-04T08:20:56.617Z,10.67
2023-01-04T08:23:01.884Z,10.69
2023-01-04T08:25:06.983Z,10.70
2023-01-04T08:27:11.140Z,10.62
2023-01-04T08:29:15.790Z,10.61
2023-01-04T08:31:24.263Z,10.70
2023-01-04T08:33:27.616Z,10.73
2023-01-04T08:35:30.951Z,10.77
2023-01-04T08:37:35.390Z,10.75
2023-01-04T08:39:44.081Z,10.77
2023-01-04T08:42:00.535Z,10.79
2023-01-04T08:44:06.689Z,10.78
2023-01-04T08:46:10.640Z,10.82
2023-01-04T08:48:20.785Z,10.79
2023-01-04T08:50:27.903Z,10.88
2023-01-04T08:52:31.357Z,10.89
2023-01-04T08:54:34.629Z,10.91
2023-01-04T08:56:38.317Z,10.95
2023-01-04T08:58:41.707Z,10.96
2023-01-04T09:00:45.091Z,10.97
2023-01-04T09:02:48.627Z,10.91
2023-01-04T09:04:55.278Z,10.97
2023-01-04T09:06:59.099Z,10.95
2023-01-04T09:09:02.629Z,10.95
2023-01-04T09:11:07.003Z,10.96
2023-01-04T09:13:10.331Z,10.97
2023-01-04T09:15:13.662Z,10.98
2023-01-04T09:17:17.173Z,11.00
2023-01-04T09:19:22.336Z,11.02
2023-01-04T09:21:27.405Z,11.04
2023-01-04T09:23:31.859Z,11.06
2023-01-04T09:25:35.127Z,11.06
2023-01-04T09:27:39.807Z,11.10
2023-01-04T09:29:43.524Z,11.11
2023-01-04T09:31:47.377Z,11.14
2023-01-04T09:36:16.052Z,11.19
2023-01-04T09:38:20.755Z,11.27
2023-01-04T09:40:32.306Z,11.30
2023-01-04T09:42:40.342Z,11.29
2023-01-04T09:45:21.865Z,11.30
2023-01-04T09:47:14.029Z,11.32
2023-01-04T09:49:21.212Z,11.34
2023-01-04T09:51:33.263Z,11.40
2023-01-04T09:53:44.469Z,11.31
2023-01-04T09:55:50.936Z,11.39
2023-01-04T09:58:00.123Z,11.40
2023-01-04T10:00:09.051Z,11.42
2023-01-04T10:02:25.295Z,11.48
2023-01-04T10:04:41.122Z,11.48
2023-01-04T10:06:47.085Z,11.61
2023-01-04T10:08:52.186Z,11.67
2023-01-04T10:11:08.481Z,11.64
2023-01-04T10:13:24.883Z,11.68
2023-01-04T10:15:34.165Z,11.67
2023-01-04T10:21:23.633Z,11.62
2023-01-04T10:23:36.489Z,11.72
2023-01-04T10:25:51.115Z,11.76
2023-01-04T10:28:15.808Z,11.50
2023-01-04T10:30:29.840Z,11.91
2023-01-04T10:32:38.580Z,11.81
2023-01-04T10:34:44.429Z,11.75
2023-01-04T10:36:49.562Z,11.66
2023-01-04T10:38:59.135Z,11.83
2023-01-04T10:41:10.690Z,12.02
2023-01-04T10:43:21.739Z,12.11
2023-01-04T10:45:33.847Z,11.95
2023-01-04T10:47:47.836Z,12.00
2023-01-04T10:49:56.646Z,12.06
2023-01-04T10:52:04.529Z,12.04
2023-01-04T10:54:14.793Z,12.01
2023-01-04T10:56:27.799Z,12.05
2023-01-04T10:58:37.433Z,12.04
2023-01-04T11:00:45.815Z,12.00
2023-01-04T11:02:56.799Z,12.04
2023-01-04T11:05:06.229Z,12.05
2023-01-04T11:07:15.281Z,12.01
2023-01-04T11:09:25.405Z,12.00
2023-01-04T11:11:35.189Z,11.95
2023-01-04T11:13:38.819Z,11.93
2023-01-04T11:15:43.633Z,11.96
2023-01-04T11:17:48.559Z,11.99
2023-01-04T11:19:52.066Z,12.02
2023-01-04T11:22:00.736Z,12.02
2023-01-04T11:24:30.820Z,12.03
2023-01-04T11:26:39.596Z,11.99
2023-01-04T11:28:50.250Z,11.99
2023-01-04T11:31:01.481Z,11.96
2023-01-04T11:33:12.133Z,12.01
2023-01-04T11:35:15.510Z,12.04
2023-01-04T11:37:30.935Z,11.99
2023-01-04T11:39:34.252Z,12.12
2023-01-04T11:41:39.028Z,12.13
2023-01-04T11:43:58.409Z,12.19
2023-01-04T11:46:05.163Z,12.21
2023-01-04T11:48:15.940Z,12.15
2023-01-04T11:50:37.576Z,12.31
2023-01-04T11:52:45.672Z,12.40
2023-01-04T11:54:49.044Z,12.40
2023-01-04T11:57:06.163Z,12.38
2023-01-04T11:59:24.470Z,12.43
2023-01-04T12:01:29.259Z,12.50
2023-01-04T12:03:35.914Z,12.51
2023-01-04T12:05:39.410Z,12.50
2023-01-04T12:07:43.110Z,12.49
2023-01-04T12:09:47.783Z,12.52
2023-01-04T12:11:54.121Z,12.53
2023-01-04T12:14:00.622Z,12.53
2023-01-04T12:16:13.579Z,12.54
2023-01-04T12:18:23.758Z,12.57
2023-01-04T12:20:29.826Z,12.59
2023-01-04T12:22:36.272Z,12.58
2023-01-04T12:24:40.412Z,12.60
2023-01-04T12:26:43.960Z,12.61
2023-01-04T12:28:49.265Z,12.61
2023-01-04T12:30:53.929Z,12.61
2023-01-04T12:32:57.226Z,12.58
2023-01-04T12:35:00.845Z,12.62
2023-01-04T12:37:06.209Z,12.64
2023-01-04T12:39:39.111Z,12.55
2023-01-04T12:42:10.251Z,12.61
2023-01-04T12:44:47.613Z,12.65
2023-01-04T12:47:11.522Z,12.65
2023-01-04T12:49:51.177Z,12.67
2023-01-04T12:52:38.149Z,12.62
2023-01-04T12:54:55.258Z,12.63
2023-01-04T12:57:22.410Z,12.63
2023-01-04T12:59:34.281Z,12.62
2023-01-04T13:01:38.873Z,12.60
2023-01-04T13:03:49.155Z,12.59
2023-01-04T13:05:59.503Z,12.58
2023-01-04T13:08:10.541Z,12.45
2023-01-04T13:10:27.858Z,12.58
2023-01-04T13:12:53.656Z,12.62
2023-01-04T13:15:04.928Z,12.57
2023-01-04T13:17:17.695Z,12.57
2023-01-04T13:19:25.516Z,12.58
2023-01-04T13:21:33.063Z,12.57
2023-01-04T13:23:37.053Z,12.56
2023-01-04T13:25:40.388Z,12.54
2023-01-04T13:27:56.849Z,12.50
2023-01-04T13:30:00.196Z,12.50
2023-01-04T13:32:05.631Z,12.38
2023-01-04T13:34:17.995Z,12.44
2023-01-04T13:36:22.759Z,12.48
2023-01-04T13:38:26.314Z,12.48
2023-01-04T13:40:32.814Z,12.47
2023-01-04T13:42:40.442Z,12.44
2023-01-04T13:45:19.093Z,12.47
2023-01-04T13:47:23.804Z,12.52
2023-01-04T13:49:28.259Z,12.19
2023-01-04T13:51:37.876Z,12.51
2023-01-04T13:53:42.086Z,12.50
2023-01-04T13:55:51.159Z,12.55
2023-01-04T13:57:55.995Z,12.54
2023-01-04T13:59:59.371Z,12.55
2023-01-04T14:02:02.833Z,12.59
2023-01-04T14:04:08.592Z,12.60
2023-01-04T14:06:20.117Z,12.62
2023-01-04T14:08:31.562Z,12.61
2023-01-04T14:10:34.951Z,12.63
2023-01-04T14:12:38.356Z,12.64
2023-01-04T14:14:49.591Z,12.66
2023-01-04T14:17:05.597Z,12.70
2023-01-04T14:19:40.511Z,12.69
2023-01-04T14:21:43.823Z,12.66
2023-01-04T14:23:48.473Z,12.67
2023-01-04T14:25:56.530Z,12.74
2023-01-04T14:28:41.539Z,12.71
2023-01-04T14:30:52.389Z,12.58
2023-01-04T14:32:57.648Z,12.79
2023-01-04T14:35:07.615Z,12.85
2023-01-04T14:37:10.946Z,12.89
2023-01-04T14:39:30.424Z,12.89
2023-01-04T14:41:35.861Z,12.85
2023-01-04T14:43:46.448Z,12.91
2023-01-04T14:45:49.809Z,12.91
2023-01-04T14:47:53.329Z,12.90
2023-01-04T14:49:56.690Z,12.91
2023-01-04T14:52:02.372Z,12.94
2023-01-04T14:54:06.448Z,12.95
2023-01-04T14:56:14.134Z,12.95
2023-01-04T14:58:17.570Z,12.94
2023-01-04T15:00:20.939Z,12.93
2023-01-04T15:02:26.965Z,12.90
2023-01-04T15:04:30.690Z,12.91
2023-01-04T15:06:34.607Z,12.84
2023-01-04T15:08:39.336Z,12.88
2023-01-04T15:10:42.732Z,12.88
2023-01-04T15:12:47.637Z,12.88
2023-01-04T15:14:50.966Z,12.88
2023-01-04T15:16:54.300Z,12.83
2023-01-04T15:18:57.629Z,12.90
2023-01-04T15:21:01.033Z,12.90
2023-01-04T15:23:04.392Z,12.91
2023-01-04T15:25:08.815Z,12.92
2023-01-04T15:27:12.170Z,12.90
2023-01-04T15:29:16.884Z,12.90
2023-01-04T15:31:27.687Z,12.92
2023-01-04T15:33:33.475Z,12.87
2023-01-04T15:35:37.293Z,12.85
2023-01-04T15:37:40.787Z,12.81
2023-01-04T15:39:44.503Z,12.79
2023-01-04T15:42:05.624Z,12.77
2023-01-04T15:44:11.242Z,12.78
2023-01-04T15:46:16.036Z,12.77
2023-01-04T15:48:19.873Z,12.76
2023-01-04T15:50:23.195Z,12.72
2023-01-04T15:52:26.829Z,12.71
2023-01-04T15:54:30.369Z,12.64
2023-01-04T15:56:33.654Z,12.62
2023-01-04T15:58:37.030Z,12.62
2023-01-04T16:00:40.427Z,12.56
2023-01-04T16:02:45.262Z,12.52
2023-01-04T16:04:49.570Z,12.46
2023-01-04T16:06:53.363Z,12.23
2023-01-04T16:08:59.063Z,12.08
2023-01-04T16:11:09.940Z,12.08
2023-01-04T16:13:13.223Z,12.03
2023-01-04T16:15:19.018Z,11.99
2023-01-04T16:17:22.378Z,11.99
2023-01-04T16:19:27.558Z,11.92
2023-01-04T16:21:31.492Z,11.91
2023-01-04T16:23:34.999Z,11.97
2023-01-04T16:25:38.771Z,12.00
2023-01-04T16:27:43.930Z,12.04
2023-01-04T16:29:47.401Z,12.02
2023-01-04T16:31:50.947Z,11.99
2023-01-04T16:33:55.172Z,12.01
2023-01-04T16:36:04.727Z,11.98
2023-01-04T16:38:08.630Z,11.93
2023-01-04T16:40:13.212Z,12.00
2023-01-04T16:42:16.629Z,11.75
2023-01-04T16:44:20.308Z,12.07
2023-01-04T16:46:25.552Z,11.98
2023-01-04T16:48:28.988Z,12.20
2023-01-04T16:50:32.432Z,12.18
2023-01-04T16:52:37.282Z,12.21
2023-01-04T16:54:40.703Z,12.23
2023-01-04T16:56:45.483Z,12.24
2023-01-04T16:58:49.305Z,12.21
2023-01-04T17:00:53.491Z,12.22
2023-01-04T17:02:58.256Z,12.19
2023-01-04T17:05:01.674Z,12.15
2023-01-04T17:07:05.030Z,12.20
2023-01-04T17:09:13.622Z,12.16
2023-01-04T17:13:43.547Z,12.13
2023-01-04T17:15:46.968Z,12.09
2023-01-04T17:17:50.313Z,12.14
2023-01-04T17:19:54.592Z,12.06
2023-01-04T17:21:57.896Z,12.13
2023-01-04T17:24:01.167Z,12.16
2023-01-04T17:26:08.736Z,12.19
2023-01-04T17:28:12.080Z,12.20
2023-01-04T17:30:15.533Z,12.23
2023-01-04T17:32:18.935Z,12.23
2023-01-04T17:34:23.374Z,12.27
2023-01-04T17:36:27.021Z,12.30
2023-01-04T17:38:30.501Z,12.19
2023-01-04T17:40:35.853Z,12.31
2023-01-04T17:42:42.136Z,12.29
2023-01-04T17:44:46.054Z,12.31
2023-01-04T17:46:49.728Z,12.29
2023-01-04T17:49:21.175Z,12.27
2023-01-04T17:51:20.092Z,12.30
2023-01-04T17:53:23.389Z,12.32
2023-01-04T17:55:26.863Z,12.32
2023-01-04T17:57:31.161Z,12.33
2023-01-04T17:59:37.183Z,12.35
2023-01-04T18:01:40.695Z,12.33
2023-01-04T18:03:46.484Z,12.33
2023-01-04T18:05:59.136Z,12.30
2023-01-04T18:08:02.958Z,12.37
2023-01-04T18:10:07.087Z,12.34
2023-01-04T18:12:10.383Z,12.36
2023-01-04T18:14:14.745Z,12.34
2023-01-04T18:16:24.909Z,12.29
2023-01-04T18:18:29.073Z,12.31
2023-01-04T18:20:32.736Z,12.32
2023-01-04T18:22:36.094Z,12.41
2023-01-04T18:24:39.912Z,12.17
2023-01-04T18:27:19.276Z,12.36
2023-01-04T18:29:08.714Z,12.37
2023-01-04T18:31:15.443Z,12.33
2023-01-04T18:33:20.238Z,12.34
2023-01-04T18:35:23.579Z,12.31
2023-01-04T18:37:26.977Z,12.16
2023-01-04T18:39:30.354Z,12.32
2023-01-04T18:41:33.938Z,12.30
2023-01-04T18:43:37.503Z,12.26
2023-01-04T18:45:41.415Z,12.28
2023-01-04T18:47:47.481Z,12.31
2023-01-04T18:49:52.277Z,12.29
2023-01-04T18:51:55.659Z,12.30
2023-01-04T18:53:59.242Z,12.34
2023-01-04T18:56:05.352Z,12.34
2023-01-04T18:58:08.830Z,12.30
2023-01-04T19:00:13.627Z,12.40
2023-01-04T19:02:19.024Z,12.34
2023-01-04T19:04:22.491Z,12.41
2023-01-04T19:06:29.000Z,12.41
2023-01-04T19:08:32.683Z,12.38
2023-01-04T19:10:36.010Z,12.28
2023-01-04T19:12:39.663Z,12.45
2023-01-04T19:14:43.000Z,12.44
2023-01-04T19:16:46.493Z,12.43
2023-01-04T19:18:49.887Z,12.12
2023-01-04T19:20:53.736Z,12.41
2023-01-04T19:23:00.975Z,12.40
2023-01-04T19:25:04.762Z,12.40
2023-01-04T19:27:09.056Z,12.38
2023-01-04T19:29:12.470Z,12.38
2023-01-04T19:31:16.948Z,12.40
2023-01-04T19:33:20.492Z,12.40
2023-01-04T19:35:24.345Z,12.41
2023-01-04T19:37:28.877Z,12.47
2023-01-04T19:39:33.630Z,12.44
2023-01-04T19:41:38.292Z,12.41
2023-01-04T19:43:42.472Z,12.43
2023-01-04T19:45:45.887Z,12.42
2023-01-04T19:47:50.659Z,12.38
2023-01-04T19:49:54.045Z,12.34
2023-01-04T19:51:57.704Z,12.43
2023-01-04T19:54:01.239Z,12.45
2023-01-04T19:56:06.655Z,12.48
2023-01-04T19:58:09.981Z,12.45
2023-01-04T20:00:14.561Z,12.46
2023-01-04T20:02:18.219Z,12.38
2023-01-04T20:04:21.843Z,12.40
2023-01-04T20:06:25.204Z,12.43
2023-01-04T20:08:28.556Z,12.43
2023-01-04T20:10:34.086Z,12.41
2023-01-04T20:12:38.985Z,12.32
2023-01-04T20:14:42.332Z,12.45
2023-01-04T20:16:45.784Z,12.37
2023-01-04T20:18:49.283Z,12.44
2023-01-04T20:20:53.330Z,12.30
2023-01-04T20:22:59.039Z,12.42
2023-01-04T20:25:02.514Z,12.39
2023-01-04T20:27:07.008Z,12.37
2023-01-04T20:29:11.701Z,12.43
2023-01-04T20:31:17.201Z,12.42
2023-01-04T20:33:20.810Z,12.41
2023-01-04T20:35:24.659Z,12.40
2023-01-04T20:37:28.118Z,12.41
2023-01-04T20:39:31.541Z,12.40
2023-01-04T20:41:35.362Z,12.40
2023-01-04T20:43:38.194Z,12.40
2023-01-04T20:45:47.352Z,12.36
2023-01-04T20:47:50.928Z,12.40
2023-01-04T20:49:54.236Z,12.36
2023-01-04T20:51:57.570Z,12.32
2023-01-04T20:54:01.058Z,12.31
2023-01-04T20:56:09.614Z,12.20
2023-01-04T20:58:15.605Z,12.18
2023-01-04T21:00:19.657Z,12.12
2023-01-04T21:02:27.499Z,12.05
2023-01-04T21:04:32.118Z,12.14
2023-01-04T21:06:35.959Z,12.14
2023-01-04T21:08:40.759Z,12.10
2023-01-04T21:10:46.105Z,11.79
2023-01-04T21:12:49.830Z,12.04
2023-01-04T21:14:53.201Z,12.02
2023-01-04T21:16:56.770Z,12.02
2023-01-04T21:19:01.536Z,12.02
2023-01-04T21:21:08.866Z,12.03
2023-01-04T21:23:14.923Z,12.05
2023-01-04T21:25:18.709Z,12.01
2023-01-04T21:27:22.422Z,12.03
2023-01-04T21:29:27.624Z,12.07
2023-01-04T21:31:31.152Z,12.03
2023-01-04T21:33:34.615Z,12.05
2023-01-04T21:35:40.023Z,12.00
2023-01-04T21:37:43.400Z,12.06
2023-01-04T21:39:46.839Z,12.12
2023-01-04T21:41:51.238Z,12.10
2023-01-04T21:43:57.482Z,11.99
2023-01-04T21:46:06.003Z,12.05
2023-01-04T21:48:09.607Z,12.10
2023-01-04T21:50:16.894Z,12.12
2023-01-04T21:52:22.297Z,12.09
2023-01-04T21:54:26.976Z,12.08
2023-01-04T21:56:31.554Z,12.10
2023-01-04T21:58:35.467Z,12.01
2023-01-04T22:00:40.244Z,11.97
2023-01-04T22:02:43.765Z,12.15
2023-01-04T22:04:48.065Z,12.05
2023-01-04T22:06:51.419Z,12.11
2023-01-04T22:08:56.140Z,12.11
2023-01-04T22:10:59.639Z,12.16
2023-01-04T22:13:02.973Z,12.12
2023-01-04T22:15:07.492Z,12.08
2023-01-04T22:17:11.008Z,11.98
2023-01-04T22:19:15.209Z,12.13
2023-01-04T22:21:20.518Z,12.06
2023-01-04T22:23:23.894Z,12.04
2023-01-04T22:25:28.782Z,12.06
2023-01-04T22:27:32.161Z,12.05
2023-01-04T22:29:35.597Z,12.03
2023-01-04T22:31:39.174Z,12.02
2023-01-04T22:33:43.512Z,12.05
2023-01-04T22:35:47.134Z,12.04
2023-01-04T22:37:50.476Z,12.07
2023-01-04T22:39:53.945Z,12.05
2023-01-04T22:41:58.648Z,11.95
2023-01-04T22:44:04.458Z,11.90
2023-01-04T22:46:11.397Z,11.97
2023-01-04T22:48:14.809Z,11.98
2023-01-04T22:50:18.835Z,11.96
2023-01-04T22:52:22.428Z,12.03
2023-01-04T22:54:25.903Z,11.93
2023-01-04T22:56:30.048Z,11.96
2023-01-04T22:58:35.416Z,11.89
2023-01-04T23:00:39.590Z,11.89
2023-01-04T23:02:43.131Z,11.91
2023-01-04T23:04:46.672Z,11.91
2023-01-04T23:06:50.134Z,11.88
2023-01-04T23:08:57.885Z,11.90
2023-01-04T23:11:05.859Z,11.76
2023-01-04T23:13:09.621Z,11.63
2023-01-04T23:15:14.590Z,11.79
2023-01-04T23:17:18.194Z,11.72
2023-01-04T23:19:21.659Z,11.77
2023-01-04T23:21:25.175Z,11.76
2023-01-04T23:23:28.861Z,11.72
2023-01-04T23:25:33.961Z,11.74
2023-01-04T23:27:37.346Z,11.69
2023-01-04T23:29:40.915Z,11.72
2023-01-04T23:31:45.771Z,11.78
2023-01-04T23:33:52.206Z,11.77
2023-01-04T23:35:55.849Z,11.76
2023-01-04T23:37:59.432Z,11.73
2023-01-04T23:40:02.988Z,11.72
2023-01-04T23:42:06.453Z,11.68
2023-01-04T23:44:12.093Z,11.68
2023-01-04T23:46:17.729Z,11.69
2023-01-04T23:48:22.559Z,11.67
2023-01-04T23:50:25.954Z,11.58
2023-01-04T23:52:29.357Z,11.60
2023-01-04T23:54:32.858Z,11.66
2023-01-04T23:56:37.160Z,11.75
2023-01-04T23:58:40.989Z,11.69
